Time;durP1;ratioP1;P1;durP2;ratioP2;P2;SDS_P1;SDS_P2;PMS_P1;PMS_P2;Temp;Humidity;BMP_temperature;BMP_pressure;BME280_temperature;BME280_humidity;BME280_pressure;Samples;Min_cycle;Max_cycle;Signal;HPM_P1;HPM_P2
2021/06/19 00:01:00;;;;;;;0.55;0.50;;;;;;;-148.58;100.00;55229.56;5034472;28;20033;-62
2021/06/19 00:03:25;;;;;;;1.08;0.60;;;;;;;-148.58;100.00;55229.56;5034663;28;20492;-63
2021/06/19 00:05:51;;;;;;;1.27;0.90;;;;;;;-148.58;100.00;55229.56;5034574;28;20060;-63
2021/06/19 00:08:16;;;;;;;1.38;0.85;;;;;;;-148.58;100.00;55229.56;5034728;28;20043;-64
2021/06/19 00:10:42;;;;;;;1.13;0.73;;;;;;;-148.58;100.00;55229.56;5034386;28;20108;-63
2021/06/19 00:13:08;;;;;;;0.60;0.60;;;;;;;-148.58;100.00;55229.56;5034615;28;20368;-64
2021/06/19 00:15:35;;;;;;;0.82;0.82;;;;;;;-148.58;100.00;55229.56;5034629;28;20388;-63
2021/06/19 00:18:00;;;;;;;1.10;0.80;;;;;;;-148.58;100.00;55229.56;5034450;28;20052;-63
2021/06/19 00:20:26;;;;;;;0.63;0.63;;;;;;;-148.58;100.00;55229.56;5034335;28;20477;-63
2021/06/19 00:22:52;;;;;;;0.60;0.60;;;;;;;-148.58;100.00;55229.56;5034370;28;20068;-64
2021/06/19 00:25:19;;;;;;;1.00;0.77;;;;;;;-148.58;100.00;55229.56;5034638;28;20034;-64
2021/06/19 00:27:45;;;;;;;0.93;0.70;;;;;;;-148.58;100.00;55229.56;5034335;28;20113;-61
2021/06/19 00:30:12;;;;;;;1.27;0.70;;;;;;;-148.58;100.00;55229.56;5034057;28;20440;-63
2021/06/19 00:32:38;;;;;;;1.10;1.00;;;;;;;-148.58;100.00;55229.56;5034330;28;20475;-64
2021/06/19 00:35:05;;;;;;;0.85;0.73;;;;;;;-148.58;100.00;55229.56;5032919;28;20030;-63
2021/06/19 00:37:31;;;;;;;0.98;0.63;;;;;;;-148.58;100.00;55229.56;5034309;28;20030;-64
2021/06/19 00:39:56;;;;;;;0.65;0.50;;;;;;;-148.58;100.00;55229.56;5033801;28;20021;-64
2021/06/19 00:42:22;;;;;;;1.00;0.90;;;;;;;-148.58;100.00;55229.56;5033948;28;20465;-63
2021/06/19 00:44:48;;;;;;;1.17;0.80;;;;;;;-148.58;100.00;55229.56;5033957;28;20033;-64
2021/06/19 00:47:14;;;;;;;0.68;0.65;;;;;;;-148.58;100.00;55229.56;5033979;28;20026;-64
2021/06/19 00:49:40;;;;;;;1.65;0.77;;;;;;;-148.58;100.00;55229.56;5033986;28;20036;-63
2021/06/19 00:52:05;;;;;;;0.93;0.80;;;;;;;-148.58;100.00;55229.56;5033532;28;20029;-62
2021/06/19 00:54:31;;;;;;;2.75;0.75;;;;;;;-148.58;100.00;55229.56;5034278;28;20033;-61
2021/06/19 00:56:56;;;;;;;0.75;0.60;;;;;;;-148.58;100.00;55229.56;5033643;28;20017;-62
2021/06/19 00:59:22;;;;;;;1.15;0.65;;;;;;;-148.58;100.00;55229.56;5034033;28;20040;-62
2021/06/19 01:01:48;;;;;;;0.68;0.65;;;;;;;-148.58;100.00;55229.56;5033952;28;20050;-62
2021/06/19 01:04:13;;;;;;;0.63;0.63;;;;;;;-148.58;100.00;55229.56;5017368;28;20040;-62
2021/06/19 01:06:39;;;;;;;0.50;0.50;;;;;;;-148.58;100.00;55229.56;5034713;28;20026;-62
2021/06/19 01:09:07;;;;;;;0.75;0.45;;;;;;;-148.58;100.00;55229.56;5032989;28;20035;-61
2021/06/19 01:11:33;;;;;;;0.88;0.40;;;;;;;-148.58;100.00;55229.56;5033277;28;20021;-62
2021/06/19 01:13:59;;;;;;;1.65;0.63;;;;;;;-148.58;100.00;55229.56;5033371;28;20056;-59
2021/06/19 01:16:24;;;;;;;2.78;0.77;;;;;;;-148.58;100.00;55229.56;5033511;28;20419;-62
2021/06/19 01:18:49;;;;;;;1.75;0.88;;;;;;;-148.58;100.00;55229.56;5033264;28;20416;-62
2021/06/19 01:21:21;;;;;;;0.43;0.32;;;;;;;-148.58;100.00;55229.56;5032714;28;20392;-62
2021/06/19 01:23:48;;;;;;;1.05;0.55;;;;;;;-148.58;100.00;55229.56;5032654;28;20013;-63
2021/06/19 01:26:16;;;;;;;0.80;0.43;;;;;;;-148.58;100.00;55229.56;5016576;28;20453;-62
2021/06/19 01:28:43;;;;;;;0.80;0.35;;;;;;;-148.58;100.00;55229.56;5032379;28;20029;-62
2021/06/19 01:31:09;;;;;;;0.80;0.40;;;;;;;-148.58;100.00;55229.56;5034262;28;20140;-61
2021/06/19 01:33:37;;;;;;;0.68;0.30;;;;;;;-148.58;100.00;55229.56;5014674;28;20125;-60
2021/06/19 01:36:03;;;;;;;0.77;0.47;;;;;;;-148.58;100.00;55229.56;5033289;28;20068;-60
2021/06/19 01:38:29;;;;;;;1.00;0.50;;;;;;;-148.58;100.00;55229.56;5032932;28;20041;-61
2021/06/19 01:40:54;;;;;;;0.70;0.40;;;;;;;-148.58;100.00;55229.56;5032700;28;20025;-62
2021/06/19 01:43:19;;;;;;;1.42;0.47;;;;;;;-148.58;100.00;55229.56;5032956;28;20071;-61
2021/06/19 01:45:44;;;;;;;0.93;0.50;;;;;;;-148.58;100.00;55229.56;5032856;28;20061;-62
2021/06/19 01:48:10;;;;;;;0.65;0.45;;;;;;;-148.58;100.00;55229.56;5032909;28;20025;-62
2021/06/19 01:50:36;;;;;;;2.03;0.40;;;;;;;-148.58;100.00;55229.56;5032614;28;20021;-61
2021/06/19 01:53:02;;;;;;;1.40;0.50;;;;;;;-148.58;100.00;55229.56;5032919;28;20059;-61
2021/06/19 01:55:27;;;;;;;0.30;0.30;;;;;;;-148.58;100.00;55229.56;5033199;28;20021;-61
2021/06/19 01:57:55;;;;;;;0.40;0.40;;;;;;;-148.58;100.00;55229.56;5032526;28;20037;-61
2021/06/19 02:00:23;;;;;;;0.20;0.20;;;;;;;-148.58;100.00;55229.56;5032665;28;20104;-62
2021/06/19 02:02:48;;;;;;;0.50;0.38;;;;;;;-148.58;100.00;55229.56;5032321;28;20049;-61
2021/06/19 02:05:15;;;;;;;0.40;0.40;;;;;;;-148.58;100.00;55229.56;5032730;28;20052;-61
2021/06/19 02:07:49;;;;;;;0.35;0.30;;;;;;;-148.58;100.00;55229.56;5032533;28;20044;-60
2021/06/19 02:10:16;;;;;;;1.13;0.40;;;;;;;-148.58;100.00;55229.56;5032354;28;20033;-62
2021/06/19 02:12:41;;;;;;;1.17;0.52;;;;;;;-148.58;100.00;55229.56;5032532;28;20420;-62
2021/06/19 02:15:07;;;;;;;1.42;0.22;;;;;;;-148.58;100.00;55229.56;5032611;28;20029;-61
2021/06/19 02:17:32;;;;;;;0.30;0.30;;;;;;;-148.58;100.00;55229.56;5032488;28;20072;-61
2021/06/19 02:19:57;;;;;;;0.30;0.17;;;;;;;-148.58;100.00;55229.56;5032533;28;20087;-61
2021/06/19 02:22:23;;;;;;;0.50;0.22;;;;;;;-148.58;100.00;55229.56;5032223;28;20444;-61
2021/06/19 02:24:48;;;;;;;1.77;0.35;;;;;;;-148.58;100.00;55229.56;5031437;28;20041;-61
2021/06/19 02:27:14;;;;;;;0.32;0.30;;;;;;;-148.58;100.00;55229.56;5032530;28;20064;-61
2021/06/19 02:29:41;;;;;;;0.40;0.15;;;;;;;-148.58;100.00;55229.56;5032296;28;20083;-61
2021/06/19 02:32:08;;;;;;;0.50;0.30;;;;;;;-148.58;100.00;55229.56;5032523;28;20021;-62
2021/06/19 02:34:35;;;;;;;1.00;0.28;;;;;;;-148.58;100.00;55229.56;5036346;28;20076;-62
2021/06/19 02:37:01;;;;;;;0.30;0.20;;;;;;;-148.58;100.00;55229.56;5035117;28;20108;-61
2021/06/19 02:39:26;;;;;;;1.83;0.20;;;;;;;-148.58;100.00;55229.56;5035404;28;20437;-61
2021/06/19 02:41:52;;;;;;;0.52;0.30;;;;;;;-148.58;100.00;55229.56;5035873;28;20087;-62
2021/06/19 02:44:17;;;;;;;0.57;0.20;;;;;;;-148.58;100.00;55229.56;5036209;28;20021;-61
2021/06/19 02:46:42;;;;;;;0.20;0.10;;;;;;;-148.58;100.00;55229.56;5036255;28;20063;-60
2021/06/19 02:49:08;;;;;;;1.30;0.38;;;;;;;-148.58;100.00;55229.56;5036169;28;20033;-61
2021/06/19 02:51:33;;;;;;;1.25;0.22;;;;;;;-148.58;100.00;55229.56;5035974;28;20033;-61
2021/06/19 02:53:58;;;;;;;1.17;0.30;;;;;;;-148.58;100.00;55229.56;5035844;28;20045;-60
2021/06/19 02:56:24;;;;;;;0.20;0.10;;;;;;;-148.58;100.00;55229.56;5036070;28;20029;-61
2021/06/19 02:58:49;;;;;;;0.80;0.20;;;;;;;-148.58;100.00;55229.56;5036214;28;20025;-60
2021/06/19 03:01:14;;;;;;;0.15;0.10;;;;;;;-148.58;100.00;55229.56;5035804;28;20033;-60
2021/06/19 03:03:40;;;;;;;0.20;0.05;;;;;;;-148.58;100.00;55229.56;5037261;28;20092;-61
2021/06/19 03:06:05;;;;;;;0.00;0.00;;;;;;;-148.58;100.00;55229.56;5035153;28;20038;-61
2021/06/19 03:08:30;;;;;;;0.45;0.32;;;;;;;-148.58;100.00;55229.56;5035966;28;20033;-61
2021/06/19 03:10:56;;;;;;;0.60;0.25;;;;;;;-148.58;100.00;55229.56;5035275;28;20105;-61
2021/06/19 03:13:21;;;;;;;0.30;0.15;;;;;;;-148.58;100.00;55229.56;5035879;28;20022;-60
2021/06/19 03:15:46;;;;;;;0.10;0.10;;;;;;;-148.58;100.00;55229.56;5035616;28;20025;-62
2021/06/19 03:18:12;;;;;;;0.30;0.20;;;;;;;-148.58;100.00;55229.56;5035467;28;20357;-61
2021/06/19 03:20:37;;;;;;;0.68;0.20;;;;;;;-148.58;100.00;55229.56;5035425;28;20029;-61
2021/06/19 03:23:05;;;;;;;0.63;0.10;;;;;;;-148.58;100.00;55229.56;5035349;28;20478;-60
2021/06/19 03:25:33;;;;;;;0.28;0.20;;;;;;;-148.58;100.00;55229.56;5035685;28;20033;-61
2021/06/19 03:28:00;;;;;;;0.35;0.10;;;;;;;-148.58;100.00;55229.56;5035432;28;20029;-60
2021/06/19 03:30:26;;;;;;;0.10;0.10;;;;;;;-148.58;100.00;55229.56;5035210;28;20024;-61
2021/06/19 03:32:52;;;;;;;0.25;0.08;;;;;;;-148.58;100.00;55229.56;5035453;28;20036;-60
2021/06/19 03:35:19;;;;;;;0.38;0.13;;;;;;;-148.58;100.00;55229.56;5035762;28;20029;-62
2021/06/19 03:37:45;;;;;;;0.38;0.10;;;;;;;-148.58;100.00;55229.56;5035265;28;20025;-62
2021/06/19 03:40:12;;;;;;;0.35;0.22;;;;;;;-148.58;100.00;55229.56;5035026;28;20362;-62
2021/06/19 03:42:39;;;;;;;1.13;0.45;;;;;;;-148.58;100.00;55229.56;5017376;28;20029;-61
2021/06/19 03:45:06;;;;;;;0.40;0.10;;;;;;;-148.58;100.00;55229.56;5034687;28;20030;-60
2021/06/19 03:47:31;;;;;;;0.60;0.10;;;;;;;-148.58;100.00;55229.56;5035172;28;20025;-61
2021/06/19 03:49:57;;;;;;;0.60;0.10;;;;;;;-148.58;100.00;55229.56;5034684;28;20487;-61
2021/06/19 03:52:23;;;;;;;0.35;0.20;;;;;;;-148.58;100.00;55229.56;5035144;28;20104;-60
2021/06/19 03:54:48;;;;;;;0.52;0.10;;;;;;;-148.58;100.00;55229.56;5034826;28;20100;-61
2021/06/19 03:57:31;;;;;;;0.60;0.13;;;;;;;-148.58;100.00;55229.56;5034977;28;20030;-61
2021/06/19 03:59:58;;;;;;;1.13;0.10;;;;;;;-148.58;100.00;55229.56;5034622;28;20017;-61
2021/06/19 04:02:24;;;;;;;0.25;0.10;;;;;;;-148.58;100.00;55229.56;5034592;28;20051;-61
2021/06/19 04:04:50;;;;;;;0.35;0.10;;;;;;;-148.58;100.00;55229.56;5034592;28;20021;-61
2021/06/19 04:07:16;;;;;;;1.65;0.17;;;;;;;-148.58;100.00;55229.56;5034873;28;20033;-61
2021/06/19 04:09:45;;;;;;;0.55;0.10;;;;;;;-148.58;100.00;55229.56;5034321;28;20034;-59
2021/06/19 04:12:11;;;;;;;0.38;0.13;;;;;;;-148.58;100.00;55229.56;5034717;28;20368;-60
2021/06/19 04:14:36;;;;;;;0.50;0.10;;;;;;;-148.58;100.00;55229.56;5033422;28;20026;-60
2021/06/19 04:17:02;;;;;;;1.70;0.28;;;;;;;-148.58;100.00;55229.56;5034452;28;20029;-60
2021/06/19 04:19:27;;;;;;;0.20;0.10;;;;;;;-148.58;100.00;55229.56;5034437;28;20036;-61
2021/06/19 04:21:52;;;;;;;0.30;0.30;;;;;;;-148.58;100.00;55229.56;5034328;28;20032;-60
2021/06/19 04:24:17;;;;;;;0.13;0.10;;;;;;;-148.58;100.00;55229.56;5034527;28;20043;-60
2021/06/19 04:26:43;;;;;;;0.52;0.20;;;;;;;-148.58;100.00;55229.56;5034346;28;20055;-61
2021/06/19 04:29:08;;;;;;;0.10;0.10;;;;;;;-148.58;100.00;55229.56;5034319;28;20037;-61
2021/06/19 04:31:33;;;;;;;0.43;0.10;;;;;;;-148.58;100.00;55229.56;5034467;28;20029;-60
2021/06/19 04:33:59;;;;;;;0.88;0.20;;;;;;;-148.58;100.00;55229.56;5034427;28;20062;-59
2021/06/19 04:36:25;;;;;;;0.90;0.20;;;;;;;-148.58;100.00;55229.56;5034570;28;20136;-60
2021/06/19 04:38:50;;;;;;;0.13;0.13;;;;;;;-148.58;100.00;55229.56;5033958;28;20479;-60
2021/06/19 04:46:28;;;;;;;0.47;0.13;;;;;;;-148.58;100.00;55229.56;5034430;28;20037;-61
2021/06/19 04:48:53;;;;;;;0.30;0.13;;;;;;;-148.58;100.00;55229.56;5033814;28;20036;-61
2021/06/19 04:51:19;;;;;;;0.38;0.17;;;;;;;-148.58;100.00;55229.56;5033790;28;20033;-61
2021/06/19 04:53:44;;;;;;;0.75;0.25;;;;;;;-148.58;100.00;55229.56;5033701;28;20053;-60
2021/06/19 04:56:10;;;;;;;1.02;0.10;;;;;;;-148.58;100.00;55229.56;5032855;28;20025;-60
2021/06/19 04:58:35;;;;;;;0.85;0.15;;;;;;;-148.58;100.00;55229.56;5033730;28;20064;-60
2021/06/19 05:01:01;;;;;;;0.20;0.10;;;;;;;-148.58;100.00;55229.56;5033186;28;20416;-61
2021/06/19 05:03:27;;;;;;;0.52;0.30;;;;;;;-148.58;100.00;55229.56;5033522;28;20050;-60
2021/06/19 05:05:52;;;;;;;0.40;0.20;;;;;;;-148.58;100.00;55229.56;5033394;28;20022;-60
2021/06/19 05:08:17;;;;;;;0.28;0.10;;;;;;;-148.58;100.00;55229.56;5033643;28;20025;-61
2021/06/19 05:10:44;;;;;;;1.48;0.00;;;;;;;-148.58;100.00;55229.56;5033120;28;20033;-60
2021/06/19 05:13:09;;;;;;;0.63;0.20;;;;;;;-148.58;100.00;55229.56;5033463;28;20437;-60
2021/06/19 05:15:34;;;;;;;0.25;0.00;;;;;;;-148.58;100.00;55229.56;5033443;28;20114;-60
2021/06/19 05:18:00;;;;;;;0.40;0.00;;;;;;;-148.58;100.00;55229.56;5033332;28;20025;-60
2021/06/19 05:20:27;;;;;;;0.45;0.20;;;;;;;-148.58;100.00;55229.56;5033242;28;20120;-59
2021/06/19 05:22:53;;;;;;;0.30;0.20;;;;;;;-148.58;100.00;55229.56;5033106;28;20032;-59
2021/06/19 05:25:18;;;;;;;0.98;0.15;;;;;;;-148.58;100.00;55229.56;5033342;28;20045;-60
2021/06/19 05:27:44;;;;;;;0.40;0.25;;;;;;;-148.58;100.00;55229.56;5033203;28;20076;-59
2021/06/19 05:30:11;;;;;;;0.43;0.20;;;;;;;-148.58;100.00;55229.56;5032907;28;20079;-60
2021/06/19 05:32:36;;;;;;;0.43;0.17;;;;;;;-148.58;100.00;55229.56;5033234;28;20353;-60
2021/06/19 05:35:02;;;;;;;1.40;0.10;;;;;;;-148.58;100.00;55229.56;5033020;28;20585;-60
2021/06/19 05:37:27;;;;;;;0.30;0.20;;;;;;;-148.58;100.00;55229.56;5033214;28;20025;-61
2021/06/19 05:39:54;;;;;;;0.28;0.08;;;;;;;-148.58;100.00;55229.56;5032668;28;20096;-59
2021/06/19 05:42:20;;;;;;;0.28;0.10;;;;;;;-148.58;100.00;55229.56;5032918;28;20025;-60
2021/06/19 05:44:45;;;;;;;0.25;0.00;;;;;;;-148.58;100.00;55229.56;5032845;28;20108;-58
2021/06/19 05:47:10;;;;;;;1.42;0.10;;;;;;;-148.58;100.00;55229.56;5032980;28;20112;-60
2021/06/19 05:49:36;;;;;;;0.55;0.10;;;;;;;-148.58;100.00;55229.56;5032747;28;20076;-60
2021/06/19 05:52:01;;;;;;;0.47;0.40;;;;;;;-148.58;100.00;55229.56;5033080;28;20159;-60
2021/06/19 05:54:26;;;;;;;0.55;0.20;;;;;;;-148.58;100.00;55229.56;5032893;28;20029;-61
2021/06/19 05:56:52;;;;;;;0.65;0.25;;;;;;;-148.58;100.00;55229.56;5032532;28;20025;-61
2021/06/19 05:59:17;;;;;;;0.10;0.00;;;;;;;-148.58;100.00;55229.56;5032509;28;20030;-60
2021/06/19 06:01:42;;;;;;;0.95;0.30;;;;;;;-148.58;100.00;55229.56;5032348;28;20481;-60
2021/06/19 06:04:08;;;;;;;0.50;0.13;;;;;;;-148.58;100.00;55229.56;5032677;28;20027;-60
2021/06/19 06:06:33;;;;;;;0.63;0.20;;;;;;;-148.58;100.00;55229.56;5033891;28;20037;-60
2021/06/19 06:08:58;;;;;;;0.30;0.10;;;;;;;-148.58;100.00;55229.56;5040382;28;20546;-58
2021/06/19 06:11:24;;;;;;;0.40;0.40;;;;;;;-148.58;100.00;55229.56;5032386;28;20031;-59
2021/06/19 06:13:49;;;;;;;0.30;0.10;;;;;;;-148.58;100.00;55229.56;5032545;28;20033;-60
2021/06/19 06:16:15;;;;;;;0.60;0.20;;;;;;;-148.58;100.00;55229.56;5032841;28;20025;-61
2021/06/19 06:18:40;;;;;;;0.00;0.00;;;;;;;-148.58;100.00;55229.56;5032589;28;20118;-60
2021/06/19 06:21:07;;;;;;;1.27;0.35;;;;;;;-148.58;100.00;55229.56;5032223;28;20072;-60
2021/06/19 06:23:32;;;;;;;0.30;0.10;;;;;;;-148.58;100.00;55229.56;5032463;28;20026;-61
2021/06/19 06:25:58;;;;;;;0.47;0.20;;;;;;;-148.58;100.00;55229.56;5014758;28;20036;-60
2021/06/19 06:28:23;;;;;;;0.10;0.00;;;;;;;-148.58;100.00;55229.56;5033432;28;20075;-61
2021/06/19 06:30:50;;;;;;;0.40;0.10;;;;;;;-148.58;100.00;55229.56;5031724;28;20403;-59
2021/06/19 06:33:16;;;;;;;0.20;0.10;;;;;;;-148.58;100.00;55229.56;5032519;28;20024;-60
2021/06/19 06:35:41;;;;;;;0.35;0.10;;;;;;;-148.58;100.00;55229.56;5032372;28;20026;-60
2021/06/19 06:38:06;;;;;;;0.55;0.17;;;;;;;-148.58;100.00;55229.56;5032346;28;20063;-60
2021/06/19 06:40:32;;;;;;;0.75;0.00;;;;;;;-148.58;100.00;55229.56;5032213;28;20029;-61
2021/06/19 06:42:59;;;;;;;0.77;0.20;;;;;;;-148.58;100.00;55229.56;5032203;28;20026;-61
2021/06/19 06:45:24;;;;;;;0.75;0.10;;;;;;;-148.58;100.00;55229.56;5032497;28;20390;-60
2021/06/19 06:47:50;;;;;;;0.65;0.30;;;;;;;-148.58;100.00;55229.56;5032184;28;20026;-59
2021/06/19 06:50:16;;;;;;;0.70;0.13;;;;;;;-148.58;100.00;55229.56;5030934;28;20362;-59
2021/06/19 06:52:42;;;;;;;0.10;0.00;;;;;;;-148.58;100.00;55229.56;5032217;28;20052;-60
2021/06/19 06:55:08;;;;;;;0.43;0.10;;;;;;;-148.58;100.00;55229.56;5032177;28;20022;-59
2021/06/19 06:57:34;;;;;;;1.25;0.13;;;;;;;-148.58;100.00;55229.56;5031989;28;20033;-60
2021/06/19 06:59:59;;;;;;;0.60;0.10;;;;;;;-148.58;100.00;55229.56;5031573;28;20025;-60
2021/06/19 07:02:25;;;;;;;0.40;0.15;;;;;;;-148.58;100.00;55229.56;5032094;28;20045;-60
2021/06/19 07:04:51;;;;;;;0.10;0.10;;;;;;;-148.58;100.00;55229.56;5032037;28;20033;-60
2021/06/19 07:07:17;;;;;;;0.35;0.08;;;;;;;-148.58;100.00;55229.56;5032470;28;20025;-59
2021/06/19 07:09:42;;;;;;;0.52;0.10;;;;;;;-148.58;100.00;55229.56;5031716;28;20028;-59
2021/06/19 07:12:08;;;;;;;0.30;0.10;;;;;;;-148.58;100.00;55229.56;5031881;28;20100;-60
2021/06/19 07:14:33;;;;;;;0.70;0.10;;;;;;;-148.58;100.00;55229.56;5032192;28;20025;-59
2021/06/19 07:16:59;;;;;;;0.57;0.40;;;;;;;-148.58;100.00;55229.56;5031651;28;20076;-59
2021/06/19 07:19:24;;;;;;;1.40;0.13;;;;;;;-148.58;100.00;55229.56;5034692;28;20383;-61
2021/06/19 07:21:49;;;;;;;0.55;0.28;;;;;;;-148.58;100.00;55229.56;5034886;28;20025;-61
2021/06/19 07:24:14;;;;;;;0.82;0.25;;;;;;;-148.58;100.00;55229.56;5035740;28;20040;-60
2021/06/19 07:26:40;;;;;;;0.88;0.20;;;;;;;-148.58;100.00;55229.56;5035493;28;20040;-58
2021/06/19 07:29:05;;;;;;;0.15;0.10;;;;;;;-148.58;100.00;55229.56;5035376;28;20033;-59
2021/06/19 07:31:31;;;;;;;0.35;0.17;;;;;;;-148.58;100.00;55229.56;5035336;28;20037;-60
2021/06/19 07:33:56;;;;;;;0.35;0.10;;;;;;;-148.58;100.00;55229.56;5035318;28;20013;-61
2021/06/19 07:36:21;;;;;;;0.68;0.20;;;;;;;-148.58;100.00;55229.56;5035443;28;20053;-60
2021/06/19 07:38:47;;;;;;;1.10;0.30;;;;;;;-148.58;100.00;55229.56;5035107;28;20036;-60
2021/06/19 07:41:12;;;;;;;1.63;0.20;;;;;;;-148.58;100.00;55229.56;5036446;28;20033;-60
2021/06/19 07:43:39;;;;;;;0.20;0.08;;;;;;;-148.58;100.00;55229.56;5034252;28;20029;-59
2021/06/19 07:46:04;;;;;;;0.47;0.28;;;;;;;-148.58;100.00;55229.56;5035464;28;20542;-59
2021/06/19 07:48:29;;;;;;;0.15;0.10;;;;;;;-148.58;100.00;55229.56;5033971;28;20056;-60
2021/06/19 07:50:55;;;;;;;1.30;0.20;;;;;;;-148.58;100.00;55229.56;5034809;28;20108;-59
2021/06/19 07:53:20;;;;;;;0.30;0.10;;;;;;;-148.58;100.00;55229.56;5035102;28;20021;-59
2021/06/19 07:55:45;;;;;;;0.15;0.13;;;;;;;-148.58;100.00;55229.56;5034882;28;20372;-61
2021/06/19 07:58:11;;;;;;;0.30;0.10;;;;;;;-148.58;100.00;55229.56;5035080;28;20484;-62
2021/06/19 08:00:36;;;;;;;0.32;0.10;;;;;;;-148.58;100.00;55229.56;5033992;28;20108;-60
2021/06/19 08:03:02;;;;;;;0.77;0.20;;;;;;;-148.58;100.00;55229.56;5034584;28;20076;-60
2021/06/19 08:05:28;;;;;;;0.75;0.30;;;;;;;-148.58;100.00;55229.56;5034827;28;20503;-60
2021/06/19 08:07:54;;;;;;;0.50;0.20;;;;;;;-148.58;100.00;55229.56;5034711;28;20081;-59
2021/06/19 08:10:19;;;;;;;2.20;0.30;;;;;;;-148.58;100.00;55229.56;5034624;28;20472;-61
2021/06/19 08:12:45;;;;;;;0.20;0.10;;;;;;;-148.58;100.00;55229.56;5034676;28;20020;-61
2021/06/19 08:15:12;;;;;;;0.85;0.32;;;;;;;-148.58;100.00;55229.56;5035060;28;20053;-61
2021/06/19 08:17:37;;;;;;;0.75;0.10;;;;;;;-148.58;100.00;55229.56;5034542;28;20028;-60
2021/06/19 08:20:04;;;;;;;0.40;0.10;;;;;;;-148.58;100.00;55229.56;5034271;28;20026;-59
2021/06/19 08:22:29;;;;;;;2.67;0.25;;;;;;;-148.58;100.00;55229.56;5034583;28;20040;-60
2021/06/19 08:24:55;;;;;;;0.25;0.20;;;;;;;-148.58;100.00;55229.56;5034469;28;20025;-59
2021/06/19 08:27:23;;;;;;;1.08;0.10;;;;;;;-148.58;100.00;55229.56;5034520;28;20476;-60
2021/06/19 08:29:49;;;;;;;0.35;0.20;;;;;;;-148.58;100.00;55229.56;5032871;28;20037;-59
2021/06/19 08:32:15;;;;;;;0.77;0.30;;;;;;;-148.58;100.00;55229.56;5035101;28;20532;-61
2021/06/19 08:34:41;;;;;;;0.55;0.38;;;;;;;-148.58;100.00;55229.56;5034065;28;20166;-61
2021/06/19 08:37:06;;;;;;;0.20;0.10;;;;;;;-148.58;100.00;55229.56;5035365;28;20028;-61
2021/06/19 08:39:32;;;;;;;1.45;0.20;;;;;;;-148.58;100.00;55229.56;5035498;28;20029;-60
2021/06/19 08:41:58;;;;;;;1.35;0.30;;;;;;;-148.58;100.00;55229.56;5034903;28;20104;-60
2021/06/19 08:44:25;;;;;;;0.68;0.20;;;;;;;-148.58;100.00;55229.56;5033197;28;20026;-62
2021/06/19 08:46:52;;;;;;;0.50;0.15;;;;;;;-148.58;100.00;55229.56;5033702;28;20029;-61
2021/06/19 08:49:19;;;;;;;0.30;0.10;;;;;;;-148.58;100.00;55229.56;5034537;28;20025;-61
2021/06/19 08:51:45;;;;;;;0.88;0.25;;;;;;;-148.58;100.00;55229.56;5033109;28;20495;-62
2021/06/19 08:54:11;;;;;;;1.33;0.40;;;;;;;-148.58;100.00;55229.56;5033808;28;20039;-59
2021/06/19 08:56:39;;;;;;;0.43;0.13;;;;;;;-148.58;100.00;55229.56;5033774;28;20069;-60
2021/06/19 08:59:05;;;;;;;0.95;0.20;;;;;;;-148.58;100.00;55229.56;5034065;28;20104;-61
2021/06/19 09:01:30;;;;;;;0.20;0.20;;;;;;;-148.58;100.00;55229.56;5033402;28;20449;-59
2021/06/19 09:03:55;;;;;;;1.67;0.35;;;;;;;-148.58;100.00;55229.56;5033531;28;20034;-58
2021/06/19 09:06:25;;;;;;;0.95;0.30;;;;;;;-148.58;100.00;55229.56;5033543;28;20044;-59
2021/06/19 09:09:04;;;;;;;0.45;0.20;;;;;;;-148.58;100.00;55229.56;5033782;28;20032;-59
2021/06/19 09:11:31;;;;;;;0.32;0.32;;;;;;;-148.58;100.00;55229.56;5032175;28;20423;-60
2021/06/19 09:14:01;;;;;;;0.20;0.20;;;;;;;-148.58;100.00;55229.56;5033389;28;20104;-62
2021/06/19 09:16:26;;;;;;;0.20;0.20;;;;;;;-148.58;100.00;55229.56;5033822;28;20048;-62
2021/06/19 09:18:52;;;;;;;0.47;0.20;;;;;;;-148.58;100.00;55229.56;5033571;28;20031;-63
2021/06/19 09:21:29;;;;;;;0.70;0.10;;;;;;;-148.58;100.00;55229.56;5033229;28;20021;-62
2021/06/19 09:23:55;;;;;;;0.40;0.20;;;;;;;-148.58;100.00;55229.56;5031852;28;20026;-62
2021/06/19 09:26:25;;;;;;;0.65;0.20;;;;;;;-148.58;100.00;55229.56;5033198;28;20021;-62
2021/06/19 09:29:14;;;;;;;0.30;0.10;;;;;;;-148.58;100.00;55229.56;5016291;28;20376;-61
2021/06/19 09:31:42;;;;;;;0.13;0.10;;;;;;;-148.58;100.00;55229.56;5028354;28;20072;-61
2021/06/19 09:34:22;;;;;;;1.08;0.30;;;;;;;-148.58;100.00;55229.56;5033477;28;20350;-62
2021/06/19 09:36:53;;;;;;;0.28;0.20;;;;;;;-148.58;100.00;55229.56;5015587;28;20028;-59
2021/06/19 09:39:26;;;;;;;0.45;0.20;;;;;;;-148.58;100.00;55229.56;5047789;28;20567;-60
2021/06/19 09:41:58;;;;;;;1.50;0.20;;;;;;;-148.58;100.00;55229.56;5031254;28;20372;-62
2021/06/19 09:44:44;;;;;;;1.30;0.47;;;;;;;-148.58;100.00;55229.56;5032927;28;20045;-62
2021/06/19 09:47:12;;;;;;;0.90;0.30;;;;;;;-148.58;100.00;55229.56;5032974;28;20032;-62
2021/06/19 09:49:43;;;;;;;0.55;0.20;;;;;;;-148.58;100.00;55229.56;5032939;28;20044;-62
2021/06/19 09:52:10;;;;;;;0.50;0.20;;;;;;;-148.58;100.00;55229.56;5032704;28;20458;-62
2021/06/19 09:54:43;;;;;;;1.52;0.50;;;;;;;-148.58;100.00;55229.56;5032855;28;20026;-63
2021/06/19 09:57:17;;;;;;;0.30;0.20;;;;;;;-148.58;100.00;55229.56;5032756;28;20052;-62
2021/06/19 09:59:43;;;;;;;0.20;0.20;;;;;;;-148.58;100.00;55229.56;5015117;28;20037;-60
2021/06/19 10:02:28;;;;;;;0.20;0.20;;;;;;;-148.58;100.00;55229.56;5032171;28;20037;-61
2021/06/19 10:04:56;;;;;;;0.40;0.30;;;;;;;-148.58;100.00;55229.56;5032609;28;20071;-61
2021/06/19 10:07:23;;;;;;;1.95;0.57;;;;;;;-148.58;100.00;55229.56;5032025;28;20071;-61
2021/06/19 10:09:50;;;;;;;0.43;0.30;;;;;;;-148.58;100.00;55229.56;5031534;28;20565;-62
2021/06/19 10:12:21;;;;;;;1.40;0.40;;;;;;;-148.58;100.00;55229.56;5032440;28;20021;-62
2021/06/19 10:14:49;;;;;;;0.10;0.10;;;;;;;-148.58;100.00;55229.56;5032493;28;20384;-62
2021/06/19 10:17:17;;;;;;;0.68;0.20;;;;;;;-148.58;100.00;55229.56;5032605;28;20026;-62
2021/06/19 10:19:43;;;;;;;0.50;0.20;;;;;;;-148.58;100.00;55229.56;5032538;28;20029;-62
2021/06/19 10:22:09;;;;;;;1.00;0.30;;;;;;;-148.58;100.00;55229.56;5032185;28;20032;-62
2021/06/19 10:24:36;;;;;;;0.98;0.20;;;;;;;-148.58;100.00;55229.56;5032521;28;20033;-60
2021/06/19 10:27:02;;;;;;;1.13;0.40;;;;;;;-148.58;100.00;55229.56;5031078;28;20030;-60
2021/06/19 10:29:28;;;;;;;0.95;0.25;;;;;;;-148.58;100.00;55229.56;5032481;28;20091;-61
2021/06/19 10:31:55;;;;;;;0.50;0.28;;;;;;;-148.58;100.00;55229.56;5032092;28;20041;-62
2021/06/19 10:34:28;;;;;;;1.00;0.30;;;;;;;-148.58;100.00;55229.56;5031228;28;20029;-60
2021/06/19 10:36:57;;;;;;;0.30;0.28;;;;;;;-148.58;100.00;55229.56;5032282;28;20048;-62
2021/06/19 10:39:43;;;;;;;0.55;0.30;;;;;;;-148.58;100.00;55229.56;5032446;28;20060;-63
2021/06/19 10:42:37;;;;;;;1.55;0.20;;;;;;;-148.58;100.00;55229.56;5032668;28;20018;-62
2021/06/19 10:45:15;;;;;;;0.55;0.20;;;;;;;-148.58;100.00;55229.56;5033229;28;20033;-62
2021/06/19 10:47:59;;;;;;;0.30;0.15;;;;;;;-148.58;100.00;55229.56;5033399;28;20033;-62
2021/06/19 10:50:25;;;;;;;0.22;0.20;;;;;;;-148.58;100.00;55229.56;5035769;28;20025;-63
2021/06/19 10:53:05;;;;;;;1.58;0.30;;;;;;;-148.58;100.00;55229.56;5032146;28;20026;-61
2021/06/19 10:55:33;;;;;;;0.30;0.10;;;;;;;-148.58;100.00;55229.56;5035858;28;20029;-61
2021/06/19 10:58:04;;;;;;;1.10;0.30;;;;;;;-148.58;100.00;55229.56;5035832;28;20025;-61
2021/06/19 11:00:32;;;;;;;1.25;0.38;;;;;;;-148.58;100.00;55229.56;5036209;28;20033;-61
2021/06/19 11:03:00;;;;;;;1.20;0.20;;;;;;;-148.58;100.00;55229.56;5035406;28;20515;-62
2021/06/19 11:05:41;;;;;;;1.48;0.28;;;;;;;-148.58;100.00;55229.56;5035889;28;20469;-62
2021/06/19 11:08:10;;;;;;;0.47;0.20;;;;;;;-148.58;100.00;55229.56;5036197;28;20234;-62
2021/06/19 11:10:45;;;;;;;0.50;0.22;;;;;;;-148.58;100.00;55229.56;5035524;28;20026;-61
2021/06/19 11:13:28;;;;;;;0.10;0.10;;;;;;;-148.58;100.00;55229.56;5035646;28;20026;-61